Stratton, Colorado
Current Conditions -  °F | °C
As of 4:53 PM on Sunday 21 Dec 2014 (Local Time) from KITR Reporting Station
Overcast Overcast  
Wind Chill: 41°   Ceiling: 5500
Heat Index: 47°   Visibility: 10mi
Dew Point: 31°   Wind: 13mph
Humidity: 54%   Direction: 330°NNW
Pressure: 29.55"   Gusts: 17mph
Location:  39.3°N, 102.6°W
Report Text: KITR 212353Z AUTO 33011G15KT 10SM BKN055 BKN075 OVC090 08/M01 A2955 RMK AO2 SLP005 T00831006 10106 20050 55002
Loading
Personal Weather Stations






























Interactive Weather Map New forecast layout! Learn more

10-Day Weather Forecast

Advertisements
Track Severe Weather on mobile